sensor_id;sensor_type;location;lat;lon;timestamp;P1;durP1;ratioP1;P2;durP2;ratioP2
17566;SDS011;8901;52.088;5.084;2023-05-10T00:07:06;36.70;;;33.63;;
17566;SDS011;8901;52.088;5.084;2023-05-10T00:09:42;35.20;;;32.40;;
17566;SDS011;8901;52.088;5.084;2023-05-10T00:15:12;36.20;;;33.17;;
17566;SDS011;8901;52.088;5.084;2023-05-10T00:17:49;36.03;;;33.00;;
17566;SDS011;8901;52.088;5.084;2023-05-10T00:26:13;35.00;;;32.00;;
17566;SDS011;8901;52.088;5.084;2023-05-10T00:34:21;37.47;;;34.33;;
17566;SDS011;8901;52.088;5.084;2023-05-10T00:42:53;37.77;;;34.70;;
17566;SDS011;8901;52.088;5.084;2023-05-10T00:48:24;40.57;;;37.13;;
17566;SDS011;8901;52.088;5.084;2023-05-10T00:51:02;38.63;;;35.40;;
17566;SDS011;8901;52.088;5.084;2023-05-10T00:53:30;33.37;;;30.47;;
17566;SDS011;8901;52.088;5.084;2023-05-10T00:55:57;36.17;;;33.23;;
17566;SDS011;8901;52.088;5.084;2023-05-10T00:58:43;39.00;;;35.53;;
17566;SDS011;8901;52.088;5.084;2023-05-10T01:01:10;38.30;;;35.13;;
17566;SDS011;8901;52.088;5.084;2023-05-10T01:03:37;40.43;;;36.93;;
17566;SDS011;8901;52.088;5.084;2023-05-10T01:06:06;40.87;;;37.03;;
17566;SDS011;8901;52.088;5.084;2023-05-10T01:08:35;37.47;;;34.30;;
17566;SDS011;8901;52.088;5.084;2023-05-10T01:11:02;32.53;;;30.03;;
17566;SDS011;8901;52.088;5.084;2023-05-10T01:13:30;35.10;;;32.30;;
17566;SDS011;8901;52.088;5.084;2023-05-10T01:16:00;33.30;;;30.87;;
17566;SDS011;8901;52.088;5.084;2023-05-10T01:18:28;33.43;;;30.83;;
17566;SDS011;8901;52.088;5.084;2023-05-10T01:20:59;35.63;;;32.73;;
17566;SDS011;8901;52.088;5.084;2023-05-10T01:23:31;38.23;;;35.07;;
17566;SDS011;8901;52.088;5.084;2023-05-10T01:34:13;39.27;;;35.83;;
17566;SDS011;8901;52.088;5.084;2023-05-10T01:36:43;35.20;;;32.30;;
17566;SDS011;8901;52.088;5.084;2023-05-10T01:39:14;36.97;;;33.70;;
17566;SDS011;8901;52.088;5.084;2023-05-10T01:41:45;44.20;;;39.60;;
17566;SDS011;8901;52.088;5.084;2023-05-10T01:44:16;43.03;;;38.37;;
17566;SDS011;8901;52.088;5.084;2023-05-10T01:46:45;48.50;;;43.70;;
17566;SDS011;8901;52.088;5.084;2023-05-10T01:49:18;60.77;;;41.63;;
17566;SDS011;8901;52.088;5.084;2023-05-10T01:51:49;40.60;;;36.50;;
17566;SDS011;8901;52.088;5.084;2023-05-10T01:54:19;52.87;;;41.90;;
17566;SDS011;8901;52.088;5.084;2023-05-10T01:56:47;46.87;;;42.17;;
17566;SDS011;8901;52.088;5.084;2023-05-10T01:59:17;47.80;;;42.60;;
17566;SDS011;8901;52.088;5.084;2023-05-10T02:01:45;43.10;;;39.07;;
17566;SDS011;8901;52.088;5.084;2023-05-10T02:04:14;42.00;;;37.87;;
17566;SDS011;8901;52.088;5.084;2023-05-10T02:06:51;37.43;;;34.13;;
17566;SDS011;8901;52.088;5.084;2023-05-10T02:09:20;42.37;;;38.33;;
17566;SDS011;8901;52.088;5.084;2023-05-10T02:11:47;46.93;;;42.37;;
17566;SDS011;8901;52.088;5.084;2023-05-10T02:14:15;49.27;;;44.57;;
17566;SDS011;8901;52.088;5.084;2023-05-10T02:16:43;46.90;;;42.50;;
17566;SDS011;8901;52.088;5.084;2023-05-10T02:19:11;50.83;;;45.70;;
17566;SDS011;8901;52.088;5.084;2023-05-10T02:21:40;46.53;;;41.87;;
17566;SDS011;8901;52.088;5.084;2023-05-10T02:24:10;47.73;;;43.13;;
17566;SDS011;8901;52.088;5.084;2023-05-10T02:26:37;47.00;;;42.57;;
17566;SDS011;8901;52.088;5.084;2023-05-10T02:29:05;46.90;;;42.57;;
17566;SDS011;8901;52.088;5.084;2023-05-10T02:31:33;46.90;;;42.73;;
17566;SDS011;8901;52.088;5.084;2023-05-10T02:34:03;43.40;;;39.50;;
17566;SDS011;8901;52.088;5.084;2023-05-10T02:36:31;47.20;;;43.10;;
17566;SDS011;8901;52.088;5.084;2023-05-10T02:38:58;42.07;;;38.47;;
17566;SDS011;8901;52.088;5.084;2023-05-10T02:41:28;48.17;;;43.63;;
17566;SDS011;8901;52.088;5.084;2023-05-10T02:43:57;42.07;;;38.17;;
17566;SDS011;8901;52.088;5.084;2023-05-10T02:46:26;42.97;;;39.20;;
17566;SDS011;8901;52.088;5.084;2023-05-10T02:48:53;42.33;;;38.23;;
17566;SDS011;8901;52.088;5.084;2023-05-10T02:51:21;41.57;;;37.77;;
17566;SDS011;8901;52.088;5.084;2023-05-10T02:53:51;48.57;;;43.97;;
17566;SDS011;8901;52.088;5.084;2023-05-10T02:56:22;46.73;;;42.43;;
17566;SDS011;8901;52.088;5.084;2023-05-10T02:58:52;50.40;;;45.40;;
17566;SDS011;8901;52.088;5.084;2023-05-10T03:01:19;43.77;;;39.83;;
17566;SDS011;8901;52.088;5.084;2023-05-10T03:03:46;51.57;;;46.77;;
17566;SDS011;8901;52.088;5.084;2023-05-10T03:06:14;48.73;;;43.97;;
17566;SDS011;8901;52.088;5.084;2023-05-10T03:08:41;48.43;;;43.87;;
17566;SDS011;8901;52.088;5.084;2023-05-10T03:11:13;45.47;;;41.27;;
17566;SDS011;8901;52.088;5.084;2023-05-10T03:13:44;46.03;;;41.53;;
17566;SDS011;8901;52.088;5.084;2023-05-10T03:16:15;46.67;;;42.20;;
17566;SDS011;8901;52.088;5.084;2023-05-10T03:18:43;46.73;;;42.23;;
17566;SDS011;8901;52.088;5.084;2023-05-10T03:21:11;45.93;;;41.77;;
17566;SDS011;8901;52.088;5.084;2023-05-10T03:23:43;48.23;;;43.30;;
17566;SDS011;8901;52.088;5.084;2023-05-10T03:26:11;51.23;;;46.00;;
17566;SDS011;8901;52.088;5.084;2023-05-10T03:28:42;50.67;;;45.73;;
17566;SDS011;8901;52.088;5.084;2023-05-10T03:31:10;50.70;;;45.60;;
17566;SDS011;8901;52.088;5.084;2023-05-10T03:33:46;47.27;;;42.77;;
17566;SDS011;8901;52.088;5.084;2023-05-10T03:36:14;44.00;;;39.37;;
17566;SDS011;8901;52.088;5.084;2023-05-10T03:38:41;50.20;;;45.00;;
17566;SDS011;8901;52.088;5.084;2023-05-10T03:41:09;44.93;;;40.70;;
17566;SDS011;8901;52.088;5.084;2023-05-10T03:43:36;46.33;;;41.63;;
17566;SDS011;8901;52.088;5.084;2023-05-10T03:46:03;46.30;;;41.83;;
17566;SDS011;8901;52.088;5.084;2023-05-10T03:48:31;47.73;;;42.97;;
17566;SDS011;8901;52.088;5.084;2023-05-10T03:51:00;42.70;;;38.70;;
17566;SDS011;8901;52.088;5.084;2023-05-10T03:53:27;55.03;;;49.63;;
17566;SDS011;8901;52.088;5.084;2023-05-10T03:55:54;52.70;;;47.17;;
17566;SDS011;8901;52.088;5.084;2023-05-10T03:58:22;49.07;;;44.13;;
17566;SDS011;8901;52.088;5.084;2023-05-10T04:00:49;51.03;;;45.60;;
17566;SDS011;8901;52.088;5.084;2023-05-10T04:03:17;48.90;;;44.43;;
17566;SDS011;8901;52.088;5.084;2023-05-10T04:05:45;51.03;;;45.77;;
17566;SDS011;8901;52.088;5.084;2023-05-10T04:08:13;50.03;;;45.13;;
17566;SDS011;8901;52.088;5.084;2023-05-10T04:10:41;41.13;;;37.17;;
17566;SDS011;8901;52.088;5.084;2023-05-10T04:13:08;44.13;;;39.73;;
17566;SDS011;8901;52.088;5.084;2023-05-10T04:15:36;45.57;;;41.10;;
17566;SDS011;8901;52.088;5.084;2023-05-10T04:18:03;43.90;;;39.40;;
17566;SDS011;8901;52.088;5.084;2023-05-10T04:20:32;48.03;;;43.10;;
17566;SDS011;8901;52.088;5.084;2023-05-10T04:22:59;49.50;;;44.77;;
17566;SDS011;8901;52.088;5.084;2023-05-10T04:25:28;45.67;;;41.13;;
17566;SDS011;8901;52.088;5.084;2023-05-10T04:27:55;46.73;;;42.23;;
17566;SDS011;8901;52.088;5.084;2023-05-10T04:33:18;38.30;;;34.67;;
17566;SDS011;8901;52.088;5.084;2023-05-10T04:35:45;43.93;;;39.83;;
17566;SDS011;8901;52.088;5.084;2023-05-10T04:38:12;41.73;;;38.00;;
17566;SDS011;8901;52.088;5.084;2023-05-10T04:40:41;46.33;;;41.53;;
17566;SDS011;8901;52.088;5.084;2023-05-10T04:43:08;42.40;;;38.27;;
17566;SDS011;8901;52.088;5.084;2023-05-10T04:45:35;40.27;;;36.37;;
17566;SDS011;8901;52.088;5.084;2023-05-10T04:48:03;37.43;;;33.80;;
17566;SDS011;8901;52.088;5.084;2023-05-10T04:50:30;37.03;;;33.43;;
17566;SDS011;8901;52.088;5.084;2023-05-10T04:52:58;41.53;;;37.23;;
17566;SDS011;8901;52.088;5.084;2023-05-10T04:55:25;43.10;;;38.50;;
17566;SDS011;8901;52.088;5.084;2023-05-10T04:57:54;45.63;;;40.57;;
17566;SDS011;8901;52.088;5.084;2023-05-10T05:00:22;40.90;;;36.33;;
17566;SDS011;8901;52.088;5.084;2023-05-10T05:02:49;41.87;;;37.30;;
17566;SDS011;8901;52.088;5.084;2023-05-10T05:05:17;42.23;;;37.07;;
17566;SDS011;8901;52.088;5.084;2023-05-10T05:07:44;45.17;;;38.07;;
17566;SDS011;8901;52.088;5.084;2023-05-10T05:10:11;36.93;;;32.87;;
17566;SDS011;8901;52.088;5.084;2023-05-10T05:12:38;39.53;;;35.03;;
17566;SDS011;8901;52.088;5.084;2023-05-10T05:15:08;38.90;;;34.63;;
17566;SDS011;8901;52.088;5.084;2023-05-10T05:17:35;39.30;;;33.90;;
17566;SDS011;8901;52.088;5.084;2023-05-10T05:20:10;42.33;;;36.07;;
17566;SDS011;8901;52.088;5.084;2023-05-10T05:22:38;40.40;;;35.00;;
17566;SDS011;8901;52.088;5.084;2023-05-10T05:25:05;39.27;;;33.57;;
17566;SDS011;8901;52.088;5.084;2023-05-10T05:27:33;38.07;;;32.13;;
17566;SDS011;8901;52.088;5.084;2023-05-10T05:30:00;37.83;;;31.50;;
17566;SDS011;8901;52.088;5.084;2023-05-10T05:32:29;32.63;;;29.13;;
17566;SDS011;8901;52.088;5.084;2023-05-10T05:34:56;29.33;;;25.23;;
17566;SDS011;8901;52.088;5.084;2023-05-10T05:37:23;30.90;;;24.70;;
17566;SDS011;8901;52.088;5.084;2023-05-10T05:39:51;31.17;;;23.83;;
17566;SDS011;8901;52.088;5.084;2023-05-10T05:42:19;23.47;;;20.97;;
17566;SDS011;8901;52.088;5.084;2023-05-10T05:44:47;25.10;;;22.40;;
17566;SDS011;8901;52.088;5.084;2023-05-10T05:47:14;22.87;;;20.57;;
17566;SDS011;8901;52.088;5.084;2023-05-10T05:49:43;21.77;;;19.47;;
17566;SDS011;8901;52.088;5.084;2023-05-10T05:52:11;22.97;;;20.13;;
17566;SDS011;8901;52.088;5.084;2023-05-10T05:54:38;22.87;;;20.40;;
17566;SDS011;8901;52.088;5.084;2023-05-10T05:57:06;21.37;;;19.07;;
17566;SDS011;8901;52.088;5.084;2023-05-10T05:59:34;22.63;;;19.60;;
17566;SDS011;8901;52.088;5.084;2023-05-10T06:02:01;25.93;;;20.83;;
17566;SDS011;8901;52.088;5.084;2023-05-10T06:04:28;24.67;;;20.47;;
17566;SDS011;8901;52.088;5.084;2023-05-10T06:06:57;20.87;;;18.67;;
17566;SDS011;8901;52.088;5.084;2023-05-10T06:09:24;19.63;;;17.07;;
17566;SDS011;8901;52.088;5.084;2023-05-10T06:11:51;21.93;;;18.63;;
17566;SDS011;8901;52.088;5.084;2023-05-10T06:14:19;20.37;;;17.37;;
17566;SDS011;8901;52.088;5.084;2023-05-10T06:16:47;18.20;;;16.30;;
17566;SDS011;8901;52.088;5.084;2023-05-10T06:19:14;19.67;;;17.57;;
17566;SDS011;8901;52.088;5.084;2023-05-10T06:21:41;21.33;;;17.63;;
17566;SDS011;8901;52.088;5.084;2023-05-10T06:24:10;16.07;;;14.20;;
17566;SDS011;8901;52.088;5.084;2023-05-10T06:26:37;16.73;;;15.03;;
17566;SDS011;8901;52.088;5.084;2023-05-10T06:29:04;17.03;;;15.17;;
17566;SDS011;8901;52.088;5.084;2023-05-10T06:31:31;16.50;;;14.70;;
17566;SDS011;8901;52.088;5.084;2023-05-10T06:33:59;16.27;;;14.63;;
17566;SDS011;8901;52.088;5.084;2023-05-10T06:36:26;17.30;;;15.50;;
17566;SDS011;8901;52.088;5.084;2023-05-10T06:38:53;17.33;;;15.73;;
17566;SDS011;8901;52.088;5.084;2023-05-10T06:41:22;16.77;;;14.80;;
17566;SDS011;8901;52.088;5.084;2023-05-10T06:43:49;16.93;;;15.33;;
17566;SDS011;8901;52.088;5.084;2023-05-10T06:46:16;17.73;;;16.03;;
17566;SDS011;8901;52.088;5.084;2023-05-10T06:48:44;17.10;;;15.40;;
17566;SDS011;8901;52.088;5.084;2023-05-10T06:51:11;17.43;;;15.90;;
17566;SDS011;8901;52.088;5.084;2023-05-10T06:53:38;17.97;;;16.27;;
17566;SDS011;8901;52.088;5.084;2023-05-10T06:56:05;17.30;;;15.70;;
17566;SDS011;8901;52.088;5.084;2023-05-10T06:58:34;16.57;;;14.90;;
17566;SDS011;8901;52.088;5.084;2023-05-10T07:01:02;19.17;;;17.47;;
17566;SDS011;8901;52.088;5.084;2023-05-10T07:03:30;17.83;;;16.23;;
17566;SDS011;8901;52.088;5.084;2023-05-10T07:06:00;17.17;;;15.67;;
17566;SDS011;8901;52.088;5.084;2023-05-10T07:08:29;16.43;;;14.90;;
17566;SDS011;8901;52.088;5.084;2023-05-10T07:11:00;17.43;;;15.93;;
17566;SDS011;8901;52.088;5.084;2023-05-10T07:13:28;17.03;;;15.63;;
17566;SDS011;8901;52.088;5.084;2023-05-10T07:15:57;16.87;;;15.40;;
17566;SDS011;8901;52.088;5.084;2023-05-10T07:18:24;16.70;;;15.27;;
17566;SDS011;8901;52.088;5.084;2023-05-10T07:20:51;15.43;;;14.13;;
17566;SDS011;8901;52.088;5.084;2023-05-10T07:23:18;14.90;;;13.70;;
17566;SDS011;8901;52.088;5.084;2023-05-10T07:25:46;15.77;;;14.47;;
17566;SDS011;8901;52.088;5.084;2023-05-10T07:34:21;16.33;;;14.83;;
17566;SDS011;8901;52.088;5.084;2023-05-10T07:36:49;16.20;;;14.90;;
17566;SDS011;8901;52.088;5.084;2023-05-10T07:39:16;16.83;;;15.40;;
17566;SDS011;8901;52.088;5.084;2023-05-10T07:41:43;16.80;;;15.50;;
17566;SDS011;8901;52.088;5.084;2023-05-10T07:44:10;15.40;;;14.10;;
17566;SDS011;8901;52.088;5.084;2023-05-10T07:46:38;17.33;;;15.90;;
17566;SDS011;8901;52.088;5.084;2023-05-10T07:49:05;16.97;;;15.60;;
17566;SDS011;8901;52.088;5.084;2023-05-10T07:51:34;18.83;;;16.93;;
17566;SDS011;8901;52.088;5.084;2023-05-10T07:54:01;17.30;;;15.80;;
17566;SDS011;8901;52.088;5.084;2023-05-10T07:56:28;17.53;;;15.83;;
17566;SDS011;8901;52.088;5.084;2023-05-10T07:58:56;16.83;;;15.33;;
17566;SDS011;8901;52.088;5.084;2023-05-10T08:01:24;18.53;;;16.90;;
17566;SDS011;8901;52.088;5.084;2023-05-10T08:03:51;16.40;;;15.10;;
17566;SDS011;8901;52.088;5.084;2023-05-10T08:06:19;16.87;;;15.47;;
17566;SDS011;8901;52.088;5.084;2023-05-10T08:08:48;17.47;;;15.80;;
17566;SDS011;8901;52.088;5.084;2023-05-10T08:11:17;18.20;;;16.70;;
17566;SDS011;8901;52.088;5.084;2023-05-10T08:13:45;16.93;;;15.50;;
17566;SDS011;8901;52.088;5.084;2023-05-10T08:16:13;17.17;;;15.67;;
17566;SDS011;8901;52.088;5.084;2023-05-10T08:18:40;16.83;;;15.53;;
17566;SDS011;8901;52.088;5.084;2023-05-10T08:21:07;16.20;;;14.90;;
17566;SDS011;8901;52.088;5.084;2023-05-10T08:23:36;16.37;;;15.07;;
17566;SDS011;8901;52.088;5.084;2023-05-10T08:26:05;16.60;;;15.20;;
17566;SDS011;8901;52.088;5.084;2023-05-10T08:28:32;15.80;;;14.60;;
17566;SDS011;8901;52.088;5.084;2023-05-10T08:30:59;15.00;;;13.63;;
17566;SDS011;8901;52.088;5.084;2023-05-10T08:33:26;15.47;;;14.23;;
17566;SDS011;8901;52.088;5.084;2023-05-10T08:35:54;15.23;;;14.03;;
17566;SDS011;8901;52.088;5.084;2023-05-10T08:38:21;16.95;;;15.60;;
17566;SDS011;8901;52.088;5.084;2023-05-10T08:40:48;15.73;;;14.53;;
17566;SDS011;8901;52.088;5.084;2023-05-10T08:43:22;16.57;;;15.37;;
17566;SDS011;8901;52.088;5.084;2023-05-10T08:45:50;16.00;;;14.80;;
17566;SDS011;8901;52.088;5.084;2023-05-10T08:48:19;16.10;;;14.80;;
17566;SDS011;8901;52.088;5.084;2023-05-10T08:50:48;15.87;;;14.67;;
17566;SDS011;8901;52.088;5.084;2023-05-10T08:53:15;16.47;;;15.17;;
17566;SDS011;8901;52.088;5.084;2023-05-10T08:55:43;16.40;;;15.20;;
17566;SDS011;8901;52.088;5.084;2023-05-10T08:58:10;16.13;;;14.80;;
17566;SDS011;8901;52.088;5.084;2023-05-10T09:00:39;15.87;;;14.70;;
17566;SDS011;8901;52.088;5.084;2023-05-10T09:03:06;14.27;;;13.27;;
17566;SDS011;8901;52.088;5.084;2023-05-10T09:05:34;16.23;;;14.83;;
17566;SDS011;8901;52.088;5.084;2023-05-10T09:08:02;15.27;;;14.27;;
17566;SDS011;8901;52.088;5.084;2023-05-10T09:10:30;15.27;;;14.17;;
17566;SDS011;8901;52.088;5.084;2023-05-10T09:12:57;15.90;;;14.70;;
17566;SDS011;8901;52.088;5.084;2023-05-10T09:15:28;14.13;;;13.13;;
17566;SDS011;8901;52.088;5.084;2023-05-10T09:17:57;14.83;;;13.73;;
17566;SDS011;8901;52.088;5.084;2023-05-10T09:20:27;14.63;;;13.40;;
17566;SDS011;8901;52.088;5.084;2023-05-10T09:22:54;14.83;;;13.70;;
17566;SDS011;8901;52.088;5.084;2023-05-10T09:25:21;14.83;;;13.63;;
17566;SDS011;8901;52.088;5.084;2023-05-10T09:27:48;14.00;;;13.00;;
17566;SDS011;8901;52.088;5.084;2023-05-10T09:30:16;13.87;;;12.70;;
17566;SDS011;8901;52.088;5.084;2023-05-10T09:32:47;14.40;;;13.50;;
17566;SDS011;8901;52.088;5.084;2023-05-10T09:35:17;14.20;;;13.30;;
17566;SDS011;8901;52.088;5.084;2023-05-10T09:37:48;14.47;;;13.57;;
17566;SDS011;8901;52.088;5.084;2023-05-10T09:40:16;14.70;;;13.40;;
17566;SDS011;8901;52.088;5.084;2023-05-10T09:42:54;15.13;;;14.03;;
17566;SDS011;8901;52.088;5.084;2023-05-10T09:45:21;14.03;;;13.03;;
17566;SDS011;8901;52.088;5.084;2023-05-10T09:47:48;14.03;;;13.10;;
17566;SDS011;8901;52.088;5.084;2023-05-10T09:50:19;14.37;;;13.37;;
17566;SDS011;8901;52.088;5.084;2023-05-10T09:52:50;13.97;;;12.97;;
17566;SDS011;8901;52.088;5.084;2023-05-10T09:55:40;13.83;;;12.83;;
17566;SDS011;8901;52.088;5.084;2023-05-10T09:58:25;13.57;;;12.57;;
17566;SDS011;8901;52.088;5.084;2023-05-10T10:00:54;14.03;;;13.03;;
17566;SDS011;8901;52.088;5.084;2023-05-10T10:03:21;13.40;;;12.50;;
17566;SDS011;8901;52.088;5.084;2023-05-10T10:08:37;13.90;;;12.80;;
17566;SDS011;8901;52.088;5.084;2023-05-10T10:11:04;15.67;;;14.33;;
17566;SDS011;8901;52.088;5.084;2023-05-10T10:13:31;15.13;;;13.83;;
17566;SDS011;8901;52.088;5.084;2023-05-10T10:15:59;13.47;;;12.27;;
17566;SDS011;8901;52.088;5.084;2023-05-10T10:18:26;15.13;;;13.90;;
17566;SDS011;8901;52.088;5.084;2023-05-10T10:20:54;15.77;;;14.27;;
17566;SDS011;8901;52.088;5.084;2023-05-10T10:26:12;16.83;;;15.13;;
17566;SDS011;8901;52.088;5.084;2023-05-10T10:28:40;16.17;;;14.67;;
17566;SDS011;8901;52.088;5.084;2023-05-10T10:31:15;16.07;;;14.77;;
17566;SDS011;8901;52.088;5.084;2023-05-10T10:33:51;14.10;;;12.90;;
17566;SDS011;8901;52.088;5.084;2023-05-10T10:36:22;16.53;;;14.87;;
17566;SDS011;8901;52.088;5.084;2023-05-10T10:38:55;13.70;;;12.70;;
17566;SDS011;8901;52.088;5.084;2023-05-10T10:41:29;14.43;;;13.23;;
17566;SDS011;8901;52.088;5.084;2023-05-10T10:49:25;15.73;;;14.43;;
17566;SDS011;8901;52.088;5.084;2023-05-10T10:54:38;15.40;;;14.30;;
17566;SDS011;8901;52.088;5.084;2023-05-10T10:57:11;14.40;;;13.40;;
17566;SDS011;8901;52.088;5.084;2023-05-10T10:59:41;13.47;;;12.50;;
17566;SDS011;8901;52.088;5.084;2023-05-10T11:02:09;15.17;;;13.87;;
17566;SDS011;8901;52.088;5.084;2023-05-10T11:04:41;14.77;;;13.77;;
17566;SDS011;8901;52.088;5.084;2023-05-10T11:07:17;15.80;;;14.80;;
17566;SDS011;8901;52.088;5.084;2023-05-10T11:09:45;17.50;;;16.20;;
17566;SDS011;8901;52.088;5.084;2023-05-10T11:12:14;15.40;;;14.50;;
17566;SDS011;8901;52.088;5.084;2023-05-10T11:14:41;17.70;;;16.50;;
17566;SDS011;8901;52.088;5.084;2023-05-10T11:17:24;16.40;;;15.20;;
17566;SDS011;8901;52.088;5.084;2023-05-10T11:22:49;16.50;;;15.50;;
17566;SDS011;8901;52.088;5.084;2023-05-10T11:25:17;16.87;;;15.77;;
17566;SDS011;8901;52.088;5.084;2023-05-10T11:27:47;17.63;;;16.57;;
17566;SDS011;8901;52.088;5.084;2023-05-10T11:30:15;15.57;;;14.67;;
17566;SDS011;8901;52.088;5.084;2023-05-10T11:32:42;15.10;;;14.10;;
17566;SDS011;8901;52.088;5.084;2023-05-10T11:35:10;15.33;;;14.17;;
17566;SDS011;8901;52.088;5.084;2023-05-10T11:37:38;14.90;;;13.80;;
17566;SDS011;8901;52.088;5.084;2023-05-10T11:40:09;15.33;;;14.07;;
17566;SDS011;8901;52.088;5.084;2023-05-10T11:42:36;13.60;;;12.80;;
17566;SDS011;8901;52.088;5.084;2023-05-10T11:45:13;14.10;;;13.10;;
17566;SDS011;8901;52.088;5.084;2023-05-10T11:47:40;16.10;;;15.00;;
17566;SDS011;8901;52.088;5.084;2023-05-10T11:53:19;15.63;;;14.60;;
17566;SDS011;8901;52.088;5.084;2023-05-10T11:58:32;16.13;;;15.03;;
17566;SDS011;8901;52.088;5.084;2023-05-10T12:01:07;29.07;;;26.80;;
17566;SDS011;8901;52.088;5.084;2023-05-10T12:03:46;19.20;;;17.93;;
17566;SDS011;8901;52.088;5.084;2023-05-10T12:06:16;19.03;;;17.73;;
17566;SDS011;8901;52.088;5.084;2023-05-10T12:08:50;18.70;;;17.40;;
17566;SDS011;8901;52.088;5.084;2023-05-10T12:11:29;18.60;;;17.30;;
17566;SDS011;8901;52.088;5.084;2023-05-10T12:20:15;19.67;;;18.27;;
17566;SDS011;8901;52.088;5.084;2023-05-10T12:26:02;21.40;;;19.40;;
17566;SDS011;8901;52.088;5.084;2023-05-10T12:28:37;18.87;;;17.30;;
17566;SDS011;8901;52.088;5.084;2023-05-10T12:37:25;20.83;;;18.93;;
17566;SDS011;8901;52.088;5.084;2023-05-10T12:46:05;19.23;;;17.77;;
17566;SDS011;8901;52.088;5.084;2023-05-10T12:48:45;20.07;;;18.47;;
17566;SDS011;8901;52.088;5.084;2023-05-10T12:51:31;21.17;;;19.50;;
17566;SDS011;8901;52.088;5.084;2023-05-10T13:00:07;22.90;;;20.97;;
17566;SDS011;8901;52.088;5.084;2023-05-10T13:02:45;22.60;;;20.60;;
17566;SDS011;8901;52.088;5.084;2023-05-10T13:08:03;21.00;;;19.30;;
17566;SDS011;8901;52.088;5.084;2023-05-10T13:19:49;20.93;;;19.27;;
17566;SDS011;8901;52.088;5.084;2023-05-10T13:22:34;21.57;;;19.57;;
17566;SDS011;8901;52.088;5.084;2023-05-10T13:28:05;21.13;;;19.33;;
17566;SDS011;8901;52.088;5.084;2023-05-10T13:33:36;20.37;;;18.50;;
17566;SDS011;8901;52.088;5.084;2023-05-10T13:39:08;20.63;;;18.93;;
17566;SDS011;8901;52.088;5.084;2023-05-10T13:41:54;19.73;;;18.03;;
17566;SDS011;8901;52.088;5.084;2023-05-10T13:47:05;18.33;;;17.00;;
17566;SDS011;8901;52.088;5.084;2023-05-10T13:52:36;18.43;;;16.77;;
17566;SDS011;8901;52.088;5.084;2023-05-10T13:55:17;17.73;;;16.03;;
17566;SDS011;8901;52.088;5.084;2023-05-10T13:57:47;20.33;;;17.80;;
17566;SDS011;8901;52.088;5.084;2023-05-10T14:03:24;17.80;;;16.40;;
17566;SDS011;8901;52.088;5.084;2023-05-10T14:08:40;17.10;;;15.77;;
17566;SDS011;8901;52.088;5.084;2023-05-10T14:14:12;17.70;;;16.40;;
17566;SDS011;8901;52.088;5.084;2023-05-10T14:16:47;16.80;;;15.70;;
17566;SDS011;8901;52.088;5.084;2023-05-10T14:25:22;18.50;;;17.20;;
17566;SDS011;8901;52.088;5.084;2023-05-10T14:30:55;15.40;;;14.30;;
17566;SDS011;8901;52.088;5.084;2023-05-10T14:36:29;16.23;;;15.00;;
17566;SDS011;8901;52.088;5.084;2023-05-10T14:41:31;17.20;;;15.90;;
17566;SDS011;8901;52.088;5.084;2023-05-10T14:43:59;17.73;;;16.20;;
17566;SDS011;8901;52.088;5.084;2023-05-10T14:46:29;16.50;;;15.30;;
17566;SDS011;8901;52.088;5.084;2023-05-10T14:54:50;16.00;;;14.80;;
17566;SDS011;8901;52.088;5.084;2023-05-10T15:00:04;16.40;;;15.10;;
17566;SDS011;8901;52.088;5.084;2023-05-10T15:02:41;15.50;;;14.20;;
17566;SDS011;8901;52.088;5.084;2023-05-10T15:05:27;15.87;;;14.67;;
17566;SDS011;8901;52.088;5.084;2023-05-10T15:08:03;14.90;;;13.70;;
17566;SDS011;8901;52.088;5.084;2023-05-10T15:10:32;16.10;;;14.80;;
17566;SDS011;8901;52.088;5.084;2023-05-10T15:13:00;15.43;;;14.27;;
17566;SDS011;8901;52.088;5.084;2023-05-10T15:15:27;14.90;;;13.70;;
17566;SDS011;8901;52.088;5.084;2023-05-10T15:17:56;15.13;;;13.87;;
17566;SDS011;8901;52.088;5.084;2023-05-10T15:20:24;14.60;;;13.43;;
17566;SDS011;8901;52.088;5.084;2023-05-10T15:22:57;14.53;;;13.23;;
17566;SDS011;8901;52.088;5.084;2023-05-10T15:25:26;13.93;;;12.43;;
17566;SDS011;8901;52.088;5.084;2023-05-10T15:27:53;13.07;;;11.87;;
17566;SDS011;8901;52.088;5.084;2023-05-10T15:30:22;13.23;;;12.07;;
17566;SDS011;8901;52.088;5.084;2023-05-10T15:32:52;15.67;;;13.50;;
17566;SDS011;8901;52.088;5.084;2023-05-10T15:35:25;14.47;;;13.27;;
17566;SDS011;8901;52.088;5.084;2023-05-10T15:37:52;14.33;;;13.10;;
17566;SDS011;8901;52.088;5.084;2023-05-10T15:40:20;13.73;;;12.53;;
17566;SDS011;8901;52.088;5.084;2023-05-10T15:45:45;16.87;;;15.40;;
17566;SDS011;8901;52.088;5.084;2023-05-10T15:48:24;17.23;;;15.73;;
17566;SDS011;8901;52.088;5.084;2023-05-10T15:53:57;16.27;;;14.57;;
17566;SDS011;8901;52.088;5.084;2023-05-10T15:56:31;16.53;;;15.13;;
17566;SDS011;8901;52.088;5.084;2023-05-10T16:02:02;17.17;;;15.73;;
17566;SDS011;8901;52.088;5.084;2023-05-10T16:07:40;15.30;;;14.00;;
17566;SDS011;8901;52.088;5.084;2023-05-10T16:10:23;18.27;;;16.77;;
17566;SDS011;8901;52.088;5.084;2023-05-10T16:12:53;17.73;;;16.23;;
17566;SDS011;8901;52.088;5.084;2023-05-10T16:15:30;18.23;;;16.73;;
17566;SDS011;8901;52.088;5.084;2023-05-10T16:21:01;18.03;;;16.53;;
17566;SDS011;8901;52.088;5.084;2023-05-10T16:35:20;18.60;;;17.00;;
17566;SDS011;8901;52.088;5.084;2023-05-10T16:37:56;16.63;;;15.23;;
17566;SDS011;8901;52.088;5.084;2023-05-10T16:40:25;17.67;;;16.07;;
17566;SDS011;8901;52.088;5.084;2023-05-10T16:48:54;16.37;;;14.97;;
17566;SDS011;8901;52.088;5.084;2023-05-10T16:54:28;18.70;;;16.97;;
17566;SDS011;8901;52.088;5.084;2023-05-10T16:59:56;16.33;;;14.83;;
17566;SDS011;8901;52.088;5.084;2023-05-10T17:02:25;16.60;;;15.27;;
17566;SDS011;8901;52.088;5.084;2023-05-10T17:10:16;16.60;;;15.17;;
17566;SDS011;8901;52.088;5.084;2023-05-10T17:15:41;14.30;;;13.10;;
17566;SDS011;8901;52.088;5.084;2023-05-10T17:18:09;15.70;;;13.67;;
17566;SDS011;8901;52.088;5.084;2023-05-10T17:23:39;15.23;;;13.50;;
17566;SDS011;8901;52.088;5.084;2023-05-10T17:29:11;15.23;;;13.93;;
17566;SDS011;8901;52.088;5.084;2023-05-10T17:34:44;14.13;;;12.83;;
17566;SDS011;8901;52.088;5.084;2023-05-10T17:40:15;14.03;;;12.83;;
17566;SDS011;8901;52.088;5.084;2023-05-10T17:42:55;14.77;;;13.37;;
17566;SDS011;8901;52.088;5.084;2023-05-10T17:45:39;16.30;;;14.80;;
17566;SDS011;8901;52.088;5.084;2023-05-10T17:57:16;17.47;;;15.97;;
17566;SDS011;8901;52.088;5.084;2023-05-10T18:05:38;16.53;;;15.13;;
17566;SDS011;8901;52.088;5.084;2023-05-10T18:08:16;18.40;;;16.80;;
17566;SDS011;8901;52.088;5.084;2023-05-10T18:10:53;17.87;;;16.23;;
17566;SDS011;8901;52.088;5.084;2023-05-10T18:13:29;17.90;;;16.27;;
17566;SDS011;8901;52.088;5.084;2023-05-10T18:18:52;18.77;;;17.27;;
17566;SDS011;8901;52.088;5.084;2023-05-10T18:21:29;17.97;;;16.37;;
17566;SDS011;8901;52.088;5.084;2023-05-10T18:26:47;18.40;;;16.90;;
17566;SDS011;8901;52.088;5.084;2023-05-10T18:35:19;20.67;;;18.97;;
17566;SDS011;8901;52.088;5.084;2023-05-10T18:40:49;22.13;;;20.27;;
17566;SDS011;8901;52.088;5.084;2023-05-10T18:46:20;21.97;;;20.07;;
17566;SDS011;8901;52.088;5.084;2023-05-10T18:48:59;19.53;;;17.93;;
17566;SDS011;8901;52.088;5.084;2023-05-10T18:51:32;20.20;;;18.40;;
17566;SDS011;8901;52.088;5.084;2023-05-10T18:54:00;21.00;;;19.20;;
17566;SDS011;8901;52.088;5.084;2023-05-10T18:56:29;21.60;;;19.70;;